Jerome, Florida
Current Conditions -  °F | °C
As of 12:15 PM on Sunday 23 Nov 2014 (Local Time) from KMKY Reporting Station
Few Clouds Few Clouds  
Wind Chill: 84°   Ceiling: Unl
Heat Index: 91°   Visibility: 10mi
Dew Point: 73°   Wind: 20mph
Humidity: 70%   Direction: 150°SSE
Pressure: 29.98"   Gusts: 25mph
Location:  25.8666°N, 81.0856°W
Report Text: KMKY 231715Z AUTO 15017G22KT 10SM FEW021 29/23 A2998 RMK AO1
Loading
Personal Weather Stations






























Interactive Weather Map New forecast layout! Learn more

10-Day Weather Forecast

Advertisements
Track Severe Weather on mobile